Latest Weather Observations for Charlton

IDV60801

Issued at 10:05 am EDT Saturday 25 October 2014 (issued every 30 minutes, with the page automatically refreshed every 10 minutes)

About weather observations | Map of weather stations | Latest weather observations for VIC | Other Formats
Station Details ID: 080128 Name: CHARLTON Lat: -36.28 Lon: 143.33 Height: 131.7 m
Data from the previous 72 hours. | See also: Recent months at Charlton
Date/Time
EDT
Temp
°C
App
Temp
°C
Dew
Point
Rel
Hum
%
Delta-T
°C
Wind Press
QNH
hPa
Press
MSL
hPa
Rain
since 9 am
mm
Dir
 
Spd
km/h
Gust
km/h
Spd
kts
Gust
kts
25/10:00am 21.4 19.3 9.9 48 6.2 ESE 11 15 6 8 1015.1 1015.0 0.0
25/09:30am 19.9 17.5 10.0 53 5.3 ESE 13 19 7 10 1015.1 1015.0 0.0
25/09:00am 18.1 15.6 9.7 58 4.5 SE 13 17 7 9 1015.4 1015.3 0.0
25/08:30am 16.9 14.6 10.3 65 3.5 SE 13 20 7 11 1015.4 1015.3 0.0
25/08:00am 15.2 12.5 10.2 72 2.6 SE 15 22 8 12 1015.3 1015.2 0.0
25/07:30am 14.1 12.5 10.1 77 2.1 ESE 9 17 5 9 1015.2 1015.1 0.0
25/07:00am 12.8 11.2 10.3 85 1.3 SSE 9 13 5 7 1015.0 1014.9 0.0
25/06:30am 12.4 11.2 10.3 87 1.1 S 7 11 4 6 1014.7 1014.6 0.0
25/06:00am 12.4 11.2 10.3 87 1.1 S 7 13 4 7 1014.6 1014.5 0.0
25/05:30am 13.0 11.5 10.7 86 1.2 SSE 9 11 5 6 1014.3 1014.2 0.0
25/05:00am 13.5 11.4 11.0 85 1.3 SSE 13 19 7 10 1014.1 1014.0 0.0
25/04:30am 13.7 12.3 10.9 83 1.5 SSE 9 15 5 8 1014.2 1014.1 0.0
25/04:00am 14.3 12.6 11.3 82 1.6 SSE 11 13 6 7 1014.0 1013.9 0.0
25/03:30am 14.8 13.9 11.2 79 1.9 S 7 11 4 6 1013.9 1013.8 0.0
25/03:00am 15.4 13.8 11.6 78 2.1 SSE 11 15 6 8 1013.9 1013.8 0.0
25/02:30am 15.3 13.6 9.7 69 2.9 S 9 13 5 7 1013.9 1013.8 0.0
25/02:00am 15.1 12.8 5.9 54 4.4 S 7 9 4 5 1014.1 1014.0 0.0
25/01:30am 15.2 12.6 4.3 48 5.1 SSW 7 9 4 5 1014.2 1014.1 0.0
25/01:00am 16.0 14.6 5.6 50 5.0 SW 2 7 1 4 1014.2 1014.1 0.0
25/12:30am 16.6 15.6 5.6 48 5.3 CALM 0 0 0 0 1014.4 1014.3 0.0
25/12:00am 17.4 16.4 5.7 46 5.7 CALM 0 0 0 0 1014.5 1014.4 0.0
 
Date/Time
EDT
Temp
°C
App
Temp
°C
Dew
Point
Rel
Hum
%
Delta-T
°C
Wind Press
QNH
hPa
Press
MSL
hPa
Rain
since 9 am
mm
Dir
 
Spd
km/h
Gust
km/h
Spd
kts
Gust
kts
24/11:30pm 18.3 17.3 5.5 43 6.3 CALM 0 0 0 0 1014.5 1014.4 0.0
24/11:00pm 19.3 18.1 4.6 38 7.1 CALM 0 0 0 0 1014.4 1014.3 0.0
24/10:30pm 20.7 19.5 4.7 35 7.8 CALM 0 0 0 0 1014.2 1014.1 0.0
24/10:00pm 22.4 19.9 4.9 32 8.7 WSW 7 11 4 6 1014.4 1014.3 0.0
24/09:30pm 23.1 20.6 4.6 30 9.2 SW 7 11 4 6 1014.2 1014.1 0.0
24/09:00pm 24.1 21.2 4.5 28 9.8 SW 9 15 5 8 1013.6 1013.5 0.0
24/08:30pm 25.5 22.8 3.5 24 10.9 WSW 7 11 4 6 1013.1 1013.0 0.0
24/08:00pm 26.5 23.3 3.1 22 11.6 SW 9 17 5 9 1012.6 1012.4 0.0
24/07:30pm 27.9 23.9 2.9 20 12.5 SW 13 20 7 11 1012.3 1012.1 0.0
24/07:00pm 29.5 25.5 2.7 18 13.4 SW 13 22 7 12 1011.9 1011.7 0.0
24/06:30pm 30.8 26.3 2.1 16 14.4 WSW 15 24 8 13 1011.6 1011.4 0.0
24/06:00pm 31.2 26.8 0.6 14 15.0 WSW 13 26 7 14 1011.2 1011.0 0.0
24/05:30pm 31.9 26.1 0.1 13 15.5 WSW 20 30 11 16 1011.3 1011.1 0.0
24/05:00pm 32.0 25.5 -2.1 11 16.0 W 22 37 12 20 1011.2 1011.0 0.0
24/04:30pm 32.3 26.1 -3.2 10 16.4 W 20 35 11 19 1011.1 1010.9 0.0
24/04:00pm 32.7 26.7 -2.9 10 16.6 W 19 33 10 18 1011.2 1011.0 0.0
24/03:30pm 31.6 25.8 -0.1 13 15.4 W 20 32 11 17 1011.5 1011.3 0.0
24/03:00pm 30.9 25.2 -0.7 13 15.1 W 19 32 10 17 1011.8 1011.6 0.0
24/02:30pm 30.4 24.3 -2.2 12 15.1 W 20 35 11 19 1012.2 1012.0 0.0
24/02:00pm 30.4 24.9 1.8 16 14.2 WNW 20 26 11 14 1012.2 1012.0 0.0
24/01:30pm 29.9 24.8 3.0 18 13.6 W 19 30 10 16 1012.3 1012.1 0.0
24/01:00pm 29.0 24.3 5.1 22 12.5 W 19 30 10 16 1012.6 1012.4 0.0
24/12:30pm 26.8 23.2 6.8 28 10.6 W 15 24 8 13 1013.1 1013.0 0.0
24/12:00pm 24.9 22.6 10.4 40 8.1 W 13 20 7 11 1013.2 1013.1 0.0
24/11:30am 24.5 23.2 12.5 47 6.9 W 11 17 6 9 1013.4 1013.3 0.0
24/11:00am 24.2 22.5 12.5 48 6.7 WNW 13 17 7 9 1013.4 1013.3 0.0
24/10:30am 23.8 22.1 12.4 48 6.5 W 13 20 7 11 1013.4 1013.3 0.0
24/10:00am 24.7 23.4 12.6 47 7.0 W 11 17 6 9 1013.1 1013.0 0.0
24/09:30am 23.5 22.4 13.1 52 6.0 WNW 11 17 6 9 1013.0 1012.9 0.0
24/09:00am 20.9 21.7 12.6 59 4.7 CALM 0 6 0 3 1013.0 1012.9 0.0
24/08:30am 18.3 19.0 12.1 67 3.4 CALM 0 0 0 0 1012.7 1012.6 0.0
24/08:00am 16.1 16.3 11.7 75 2.4 S 2 7 1 4 1012.5 1012.3 0.0
24/07:30am 14.1 13.3 11.1 82 1.6 WSW 6 9 3 5 1012.6 1012.4 0.0
24/07:00am 12.4 12.5 10.1 86 1.2 CALM 0 0 0 0 1012.1 1011.9 0.0
24/06:30am 12.1 11.9 9.1 82 1.5 CALM 0 0 0 0 1011.8 1011.6 0.0
24/06:00am 13.5 13.9 11.2 86 1.2 CALM 0 0 0 0 1011.7 1011.5 0.0
24/05:30am 13.9 14.3 11.1 83 1.5 CALM 0 2 0 1 1011.8 1011.6 0.0
24/05:00am 14.3 14.0 11.3 82 1.6 W 4 9 2 5 1011.7 1011.5 0.0
24/04:30am 14.6 15.0 11.4 81 1.7 CALM 0 0 0 0 1011.7 1011.5 0.0
24/04:00am 15.0 14.3 11.4 79 1.9 SE 6 7 3 4 1011.2 1011.0 0.0
24/03:30am 15.1 15.5 11.3 78 2.0 CALM 0 0 0 0 1011.4 1011.2 0.0
24/03:00am 15.5 15.3 11.7 78 2.1 SSW 4 7 2 4 1011.5 1011.3 0.0
24/02:30am 16.1 15.3 11.7 75 2.4 S 7 11 4 6 1011.6 1011.4 0.0
24/02:00am 16.6 15.8 11.7 73 2.7 S 7 9 4 5 1011.9 1011.7 0.0
24/01:30am 17.5 17.0 12.2 71 2.9 SW 6 7 3 4 1012.4 1012.2 0.0
24/01:00am 17.7 17.6 12.2 70 3.1 S 4 7 2 4 1012.4 1012.2 0.0
24/12:30am 18.2 17.8 12.4 69 3.2 SSW 6 7 3 4 1012.9 1012.8 0.0
24/12:00am 19.5 18.7 13.0 66 3.7 S 9 11 5 6 1012.9 1012.8 0.0
 
Date/Time
EDT
Temp
°C
App
Temp
°C
Dew
Point
Rel
Hum
%
Delta-T
°C
Wind Press
QNH
hPa
Press
MSL
hPa
Rain
since 9 am
mm
Dir
 
Spd
km/h
Gust
km/h
Spd
kts
Gust
kts
23/11:30pm 20.5 20.5 13.7 65 3.9 SSW 6 11 3 6 1013.1 1013.0 0.0
23/11:00pm 21.0 22.1 13.4 62 4.4 CALM 0 0 0 0 1013.0 1012.9 0.0
23/10:30pm 22.1 22.1 13.7 59 4.9 S 6 11 3 6 1013.0 1012.9 0.0
23/10:00pm 22.9 22.0 13.7 56 5.4 SSE 11 17 6 9 1012.3 1012.1 0.0
23/09:30pm 23.8 22.8 13.4 52 6.1 S 11 13 6 7 1012.0 1011.8 0.0
23/09:00pm 24.7 23.5 11.6 44 7.5 S 9 13 5 7 1011.7 1011.5 0.0
23/08:30pm 26.9 25.3 10.2 35 9.4 SE 9 11 5 6 1011.1 1010.9 0.0
23/08:00pm 28.6 26.1 9.8 31 10.6 ESE 13 17 7 9 1010.9 1010.7 0.0
23/07:30pm 30.1 28.1 10.1 29 11.4 ESE 11 17 6 9 1010.8 1010.6 0.0
23/07:00pm 32.0 30.6 9.5 25 12.8 ESE 7 9 4 5 1010.8 1010.6 0.0
23/06:30pm 32.5 30.9 8.0 22 13.6 E 6 11 3 6 1010.7 1010.5 0.0
23/06:00pm 33.1 31.2 9.2 23 13.6 E 9 17 5 9 1010.7 1010.5 0.0
23/05:30pm 32.9 31.2 7.7 21 14.0 N 6 13 3 7 1010.6 1010.4 0.0
23/05:00pm 32.9 31.7 9.7 24 13.3 NNE 6 11 3 6 1011.0 1010.8 0.0
23/04:30pm 33.0 31.3 9.7 24 13.4 NE 9 19 5 10 1011.2 1011.0 0.0
23/04:00pm 33.2 31.1 9.9 24 13.4 ENE 11 19 6 10 1011.5 1011.3 0.0
23/03:30pm 32.7 31.1 10.1 25 13.0 E 9 20 5 11 1011.9 1011.7 0.0
23/03:00pm 31.8 29.0 8.7 24 13.0 ENE 13 24 7 13 1012.3 1012.1 0.0
23/02:30pm 31.4 29.4 10.2 27 12.2 E 11 22 6 12 1012.7 1012.6 0.0
23/02:00pm 31.3 29.0 10.6 28 12.0 SE 13 20 7 11 1013.1 1013.0 0.0
23/01:30pm 30.1 27.7 10.1 29 11.4 SSE 13 20 7 11 1013.6 1013.5 0.0
23/01:00pm 30.0 28.2 11.0 31 11.0 ESE 11 20 6 11 1014.2 1014.1 0.0
23/12:30pm 28.7 26.1 10.8 33 10.2 SE 15 24 8 13 1014.5 1014.4 0.0
23/12:00pm 29.0 26.1 11.1 33 10.3 ESE 17 26 9 14 1014.5 1014.4 0.0
23/11:30am 27.6 25.3 11.6 37 9.2 ESE 15 24 8 13 1015.0 1014.9 0.0
23/11:00am 26.8 24.0 11.3 38 8.9 ESE 17 26 9 14 1015.3 1015.2 0.0
23/10:30am 25.0 21.8 11.2 42 7.8 E 19 24 10 13 1015.6 1015.5 0.0
23/10:00am 23.6 20.7 12.3 49 6.5 SE 19 26 10 14 1015.9 1015.8 0.0
23/09:30am 21.5 17.9 11.8 54 5.5 SE 22 30 12 16 1015.9 1015.8 0.0
23/09:00am 20.1 16.7 11.3 57 4.9 SE 20 30 11 16 1015.9 1015.8 0.0
23/08:30am 18.7 15.4 11.5 63 4.0 SSE 20 30 11 16 1015.9 1015.8 0.0
23/08:00am 16.7 14.6 11.2 70 3.0 SSE 13 19 7 10 1015.9 1015.8 0.0
23/07:30am 14.6 12.5 11.0 79 1.9 SSE 13 17 7 9 1015.7 1015.6 0.0
23/07:00am 13.4 11.6 10.9 85 1.3 SSE 11 17 6 9 1015.6 1015.5 0.0
23/06:30am 13.2 11.4 10.7 85 1.3 S 11 17 6 9 1015.5 1015.4 0.0
23/06:00am 13.5 11.3 10.9 84 1.4 S 13 20 7 11 1015.4 1015.3 0.0
23/05:30am 13.6 12.2 10.9 84 1.4 S 9 13 5 7 1015.4 1015.3 0.0
23/05:00am 14.2 12.9 11.2 82 1.6 S 9 13 5 7 1015.3 1015.2 0.0
23/04:30am 14.7 13.5 11.5 81 1.7 S 9 17 5 9 1015.2 1015.1 0.0
23/04:00am 15.3 13.7 11.5 78 2.1 S 11 20 6 11 1015.3 1015.2 0.0
23/03:30am 15.9 14.7 11.7 76 2.3 S 9 15 5 8 1015.4 1015.3 0.0
23/03:00am 15.8 14.9 11.2 74 2.5 S 7 13 4 7 1015.5 1015.4 0.0
23/02:30am 16.4 15.1 11.1 71 2.9 S 9 13 5 7 1015.7 1015.6 0.0
23/02:00am 16.8 15.3 10.4 66 3.4 SSE 9 11 5 6 1015.9 1015.8 0.0
23/01:30am 17.0 15.9 9.9 63 3.8 S 6 7 3 4 1016.0 1015.9 0.0
23/01:00am 17.6 16.3 9.8 60 4.1 S 7 9 4 5 1016.0 1015.9 0.0
23/12:30am 18.0 17.3 9.9 59 4.3 SW 4 7 2 4 1015.9 1015.8 0.0
23/12:00am 19.2 17.8 9.7 54 5.1 SSW 7 15 4 8 1015.7 1015.6 0.0
 
Date/Time
EDT
Temp
°C
App
Temp
°C
Dew
Point
Rel
Hum
%
Delta-T
°C
Wind Press
QNH
hPa
Press
MSL
hPa
Rain
since 9 am
mm
Dir
 
Spd
km/h
Gust
km/h
Spd
kts
Gust
kts
22/11:30pm 19.4 18.6 9.6 53 5.2 S 4 7 2 4 1015.6 1015.5 0.0
22/11:00pm 20.7 20.6 9.6 49 6.0 CALM 0 0 0 0 1015.7 1015.6 0.0
22/10:30pm 22.2 20.8 9.7 45 6.8 ESE 7 11 4 6 1015.9 1015.8 0.0
22/10:00pm 22.6 20.6 10.1 45 6.9 ESE 11 15 6 8 1015.8 1015.7 0.0
22/09:30pm 23.2 20.9 10.3 44 7.1 ESE 13 20 7 11 1015.7 1015.6 0.0
22/09:00pm 23.9 19.7 9.9 41 7.7 ESE 22 30 12 16 1015.5 1015.4 0.0
22/08:30pm 24.9 20.3 9.6 38 8.4 SE 24 41 13 22 1015.2 1015.1 0.0
22/08:00pm 25.3 19.4 10.4 39 8.3 ESE 32 39 17 21 1014.3 1014.2 0.0
22/07:46pm 24.8 19.2 11.4 43 7.6 SSE 32 50 17 27 1015.3 1015.2 0.0
22/07:30pm 25.5 21.4 11.3 41 8.1 S 24 37 13 20 1015.8 1015.7 0.0
22/07:00pm 26.0 22.4 9.8 36 9.0 SSW 19 28 10 15 1015.9 1015.8 0.0
22/06:34pm 29.3 23.1 6.0 23 12.3 NNW 28 46 15 25 1014.9 1014.8 0.0
22/06:30pm 28.8 23.0 6.2 24 12.0 NNW 26 39 14 21 1014.8 1014.7 0.0
22/06:13pm 29.3 23.5 7.8 26 11.7 NNW 28 46 15 25 1014.9 1014.8 0.0
22/06:00pm 30.7 25.9 7.2 23 12.8 NW 22 35 12 19 1014.9 1014.8 0.0
22/05:30pm 32.1 28.7 9.0 24 13.0 ENE 17 26 9 14 1013.6 1013.5 0.0
22/05:00pm 32.1 28.1 9.0 24 13.0 ENE 20 30 11 16 1013.7 1013.6 0.0
22/04:30pm 32.1 28.3 9.0 24 13.0 ENE 19 28 10 15 1014.2 1014.1 0.0
22/04:00pm 32.7 29.5 10.1 25 13.0 ENE 17 22 9 12 1014.8 1014.7 0.0
22/03:30pm 31.4 28.7 10.2 27 12.2 NE 15 24 8 13 1015.3 1015.2 0.0
22/03:00pm 30.9 27.8 10.3 28 11.8 NE 17 24 9 13 1015.9 1015.8 0.0
22/02:30pm 30.2 26.7 10.2 29 11.4 ENE 19 26 10 14 1016.3 1016.2 0.0
22/02:00pm 30.0 27.0 10.5 30 11.2 NE 17 24 9 13 1016.8 1016.7 0.0
22/01:30pm 28.8 25.9 9.5 30 10.8 NE 15 28 8 15 1017.5 1017.4 0.0
22/01:00pm 27.7 25.3 10.0 33 9.9 ENE 13 20 7 11 1017.7 1017.6 0.0
22/12:30pm 27.5 23.9 9.8 33 9.9 E 19 26 10 14 1018.0 1017.9 0.0
22/12:00pm 25.5 22.3 10.1 38 8.6 E 17 22 9 12 1018.6 1018.4 0.0
22/11:30am 25.7 22.6 10.3 38 8.6 E 17 26 9 14 1018.8 1018.6 0.0
22/11:00am 24.0 20.9 10.3 42 7.6 ENE 17 28 9 15 1019.0 1018.8 0.0
22/10:30am 23.0 19.4 10.4 45 7.0 E 20 30 11 16 1019.1 1018.9 0.0

Other Formats:

Comma delimited format used in spreadsheet applications
http://www.bom.gov.au/fwo/IDV60801/IDV60801.94839.axf

JavaScript Object Notation format (JSON) in row-major order
http://www.bom.gov.au/fwo/IDV60801/IDV60801.94839.json